Time;durP1;ratioP1;P1;durP2;ratioP2;P2;SDS_P1;SDS_P2;PMS_P1;PMS_P2;Temp;Humidity;BMP_temperature;BMP_pressure;BME280_temperature;BME280_humidity;BME280_pressure;Samples;Min_cycle;Max_cycle;Signal;HPM_P1;HPM_P2
2022/10/01 00:00:57;;;;;;;2.28;1.48;;;;;;;8.43;100.00;92425.09;4998166;28;20026;-74
2022/10/01 00:03:24;;;;;;;5.03;1.40;;;;;;;8.43;100.00;92432.91;4998029;28;20053;-74
2022/10/01 00:06:11;;;;;;;1.88;1.20;;;;;;;8.44;100.00;92442.28;5031986;28;20076;-74
2022/10/01 00:08:41;;;;;;;2.00;1.20;;;;;;;8.45;100.00;92441.25;5031860;28;20445;-74
2022/10/01 00:11:12;;;;;;;2.30;1.30;;;;;;;8.47;100.00;92435.78;5014160;28;20045;-74
2022/10/01 00:13:38;;;;;;;2.58;1.30;;;;;;;8.47;100.00;92435.78;5031553;28;20094;-74
2022/10/01 00:16:07;;;;;;;3.95;1.60;;;;;;;8.48;100.00;92452.97;5031577;28;20041;-75
2022/10/01 00:18:42;;;;;;;1.55;1.13;;;;;;;8.48;100.00;92438.09;5031689;28;20155;-74
2022/10/01 00:21:09;;;;;;;1.83;1.00;;;;;;;8.49;100.00;92441.50;5031721;28;20037;-75
2022/10/01 00:23:35;;;;;;;4.82;1.10;;;;;;;8.50;100.00;92445.66;5031743;28;20041;-74
2022/10/01 00:26:34;;;;;;;2.65;1.10;;;;;;;8.49;100.00;92433.66;5031601;28;20028;-75
2022/10/01 00:29:03;;;;;;;1.80;1.10;;;;;;;8.51;100.00;92441.97;5019849;28;20045;-74
2022/10/01 00:31:29;;;;;;;6.82;1.80;;;;;;;8.51;100.00;92442.78;5031480;28;20041;-74
2022/10/01 00:33:57;;;;;;;3.33;1.50;;;;;;;8.49;100.00;92441.50;5013923;28;20028;-75
2022/10/01 00:36:23;;;;;;;2.38;1.42;;;;;;;8.49;100.00;92434.44;5030294;28;20507;-74
2022/10/01 00:38:49;;;;;;;1.77;1.13;;;;;;;8.48;100.00;92438.09;5030129;28;20037;-75
2022/10/01 00:41:16;;;;;;;3.25;1.10;;;;;;;8.45;100.00;92433.44;5031488;28;20025;-74
2022/10/01 00:43:48;;;;;;;2.88;1.10;;;;;;;8.44;100.00;92437.06;5013587;28;20064;-74
2022/10/01 00:46:39;;;;;;;3.03;1.00;;;;;;;8.44;100.00;92434.47;5013821;28;20034;-74
2022/10/01 00:49:15;;;;;;;1.92;1.08;;;;;;;8.42;100.00;92436.59;5031242;28;20041;-74
2022/10/01 00:51:48;;;;;;;4.03;1.00;;;;;;;8.44;100.00;92438.91;5031166;28;20035;-75
2022/10/01 00:54:30;;;;;;;1.92;1.20;;;;;;;8.43;100.00;92434.75;5031103;28;20032;-75
2022/10/01 00:56:58;;;;;;;2.70;0.98;;;;;;;8.41;100.00;92432.41;5013374;28;20040;-75
2022/10/01 00:59:24;;;;;;;1.85;1.02;;;;;;;8.39;100.00;92428.50;5013693;28;20056;-75
2022/10/01 01:01:51;;;;;;;5.53;1.20;;;;;;;8.37;100.00;92436.59;5012726;28;20099;-74
2022/10/01 01:04:16;;;;;;;1.83;0.90;;;;;;;8.36;100.00;92434.28;5013560;28;20033;-74
2022/10/01 01:06:45;;;;;;;2.58;1.25;;;;;;;8.34;100.00;92429.31;5029773;28;20403;-74
2022/10/01 01:09:11;;;;;;;1.98;1.13;;;;;;;8.34;100.00;92434.53;5030643;28;20030;-74
2022/10/01 01:12:06;;;;;;;6.90;1.02;;;;;;;8.36;100.00;92444.69;5030629;28;20569;-74
2022/10/01 01:14:47;;;;;;;1.75;1.02;;;;;;;8.36;100.00;92434.28;5030944;28;20411;-74
2022/10/01 01:17:19;;;;;;;2.38;0.85;;;;;;;8.34;100.00;92426.72;5030827;28;20030;-75
2022/10/01 01:20:02;;;;;;;1.30;0.88;;;;;;;8.36;100.00;92435.03;5030529;28;20048;-75
2022/10/01 01:22:32;;;;;;;1.08;0.90;;;;;;;8.37;100.00;92428.75;5013089;28;20449;-74
2022/10/01 01:25:27;;;;;;;0.93;0.80;;;;;;;8.38;100.00;92438.16;5030339;28;20052;-75
2022/10/01 01:27:56;;;;;;;4.97;0.90;;;;;;;8.40;100.00;92433.47;5030216;28;20049;-74
2022/10/01 01:30:22;;;;;;;4.28;1.02;;;;;;;8.41;100.00;92429.81;5030801;28;20026;-75
2022/10/01 01:33:06;;;;;;;1.67;1.10;;;;;;;8.43;100.00;92425.09;5013210;28;20392;-74
2022/10/01 01:35:43;;;;;;;4.07;1.10;;;;;;;8.41;100.00;92427.19;5013113;28;20050;-74
2022/10/01 01:38:14;;;;;;;2.90;1.23;;;;;;;8.43;100.00;92434.75;5013050;28;20145;-74
2022/10/01 01:40:43;;;;;;;2.58;1.30;;;;;;;8.43;100.00;92434.75;5012968;28;20091;-74
2022/10/01 01:43:17;;;;;;;2.33;1.00;;;;;;;8.45;100.00;92438.66;5030635;28;20029;-74
2022/10/01 01:45:44;;;;;;;2.63;1.20;;;;;;;8.43;100.00;92432.91;5030408;28;20030;-74
2022/10/01 01:48:12;;;;;;;1.30;0.90;;;;;;;8.44;100.00;92438.91;5029927;28;20026;-74
2022/10/01 01:50:54;;;;;;;2.25;1.35;;;;;;;8.43;100.00;92434.75;5029219;28;20084;-74
2022/10/01 01:53:20;;;;;;;1.58;1.00;;;;;;;8.41;100.00;92429.81;5030374;28;20057;-73
2022/10/01 01:55:48;;;;;;;3.33;0.90;;;;;;;8.38;100.00;92422.50;5029076;28;20053;-75
2022/10/01 01:58:15;;;;;;;1.08;0.95;;;;;;;8.42;100.00;92441.00;5012835;28;20037;-74
2022/10/01 02:00:41;;;;;;;1.67;0.90;;;;;;;8.42;100.00;92434.00;5030532;28;20029;-74
2022/10/01 02:03:08;;;;;;;1.98;0.80;;;;;;;8.41;100.00;92431.63;5028999;28;20769;-75
2022/10/01 02:06:00;;;;;;;3.42;1.02;;;;;;;8.38;100.00;92432.94;5012868;28;20034;-74
2022/10/01 02:08:46;;;;;;;3.42;1.40;;;;;;;8.44;100.00;92426.63;5030185;28;20037;-74
2022/10/01 02:11:36;;;;;;;2.40;1.50;;;;;;;8.39;100.00;92438.94;5012650;28;20499;-74
2022/10/01 02:14:22;;;;;;;3.30;1.60;;;;;;;8.30;100.00;92436.13;5032614;28;20068;-74
2022/10/01 02:17:00;;;;;;;2.00;1.10;;;;;;;8.29;100.00;92445.00;5034073;28;20522;-74
2022/10/01 02:19:42;;;;;;;5.22;1.15;;;;;;;8.28;100.00;92443.44;5034077;28;20041;-74
2022/10/01 02:22:15;;;;;;;3.28;1.30;;;;;;;8.28;100.00;92443.44;5032139;28;20060;-74
2022/10/01 02:24:55;;;;;;;4.13;1.45;;;;;;;8.25;100.00;92439.56;5015716;28;20037;-74
2022/10/01 02:27:43;;;;;;;4.72;1.35;;;;;;;8.26;100.00;92448.94;5033584;28;20044;-74
2022/10/01 02:30:11;;;;;;;3.38;1.20;;;;;;;8.25;100.00;92441.38;5015889;28;20090;-74
2022/10/01 02:32:39;;;;;;;9.48;1.20;;;;;;;8.24;100.00;92432.00;5016185;28;20071;-74
2022/10/01 02:35:08;;;;;;;10.27;1.20;;;;;;;8.22;100.00;92434.09;5033577;28;20128;-74
2022/10/01 02:37:37;;;;;;;1.15;0.80;;;;;;;8.19;100.00;92432.03;5034683;28;20035;-74
2022/10/01 02:40:06;;;;;;;1.58;0.95;;;;;;;8.16;100.00;92440.41;5053171;28;20037;-74
2022/10/01 02:42:35;;;;;;;4.82;0.95;;;;;;;8.16;100.00;92435.19;5053468;28;20167;-75
2022/10/01 02:45:03;;;;;;;2.85;1.10;;;;;;;8.13;100.00;92429.47;5053495;28;20432;-74
2022/10/01 02:47:43;;;;;;;2.67;1.10;;;;;;;8.13;100.00;92437.28;5053223;28;20041;-73
2022/10/01 02:50:11;;;;;;;1.50;0.85;;;;;;;8.11;100.00;92436.78;5052863;28;20495;-74
2022/10/01 02:53:01;;;;;;;3.08;1.00;;;;;;;8.08;100.00;92429.50;5018872;28;20059;-74
2022/10/01 02:55:35;;;;;;;1.30;0.88;;;;;;;8.05;100.00;92437.88;5018936;28;20578;-74
2022/10/01 02:58:00;;;;;;;3.05;1.10;;;;;;;8.01;100.00;92439.44;5053067;28;20044;-75
2022/10/01 03:00:27;;;;;;;2.45;0.93;;;;;;;8.04;100.00;92443.38;5035446;28;20025;-74
2022/10/01 03:02:53;;;;;;;3.13;0.90;;;;;;;8.03;100.00;92437.34;5035425;28;20037;-74
2022/10/01 03:05:19;;;;;;;2.05;0.90;;;;;;;8.01;100.00;92444.66;5035401;28;20094;-74
2022/10/01 03:07:46;;;;;;;3.05;1.55;;;;;;;7.99;100.00;92446.75;5035237;28;20035;-74
2022/10/01 03:10:14;;;;;;;6.10;1.42;;;;;;;7.97;100.00;92448.88;5035176;28;20144;-74
2022/10/01 03:12:43;;;;;;;4.28;1.23;;;;;;;7.95;100.00;92445.75;5035131;28;20040;-74
2022/10/01 03:15:11;;;;;;;2.90;1.13;;;;;;;7.93;100.00;92453.84;5052920;28;20384;-74
2022/10/01 03:17:37;;;;;;;2.00;1.15;;;;;;;7.92;100.00;92447.09;5035116;28;20108;-74
2022/10/01 03:20:04;;;;;;;3.47;1.02;;;;;;;7.94;100.00;92444.19;5034977;28;20132;-74
2022/10/01 03:22:30;;;;;;;4.85;0.80;;;;;;;7.91;100.00;92449.94;5052905;28;20036;-74
2022/10/01 03:24:55;;;;;;;3.85;1.00;;;;;;;7.88;100.00;92455.69;5034356;28;20037;-74
2022/10/01 03:27:21;;;;;;;2.03;0.90;;;;;;;7.85;100.00;92446.59;5018285;28;20037;-74
2022/10/01 03:29:47;;;;;;;2.75;0.88;;;;;;;7.84;100.00;92444.28;5052655;28;20061;-74
2022/10/01 03:32:14;;;;;;;3.38;0.80;;;;;;;7.79;100.00;92444.28;5034764;28;20039;-74
2022/10/01 03:34:39;;;;;;;2.75;1.10;;;;;;;7.77;100.00;92439.34;5052186;28;20116;-74
2022/10/01 03:37:06;;;;;;;3.55;1.05;;;;;;;7.74;100.00;92439.09;5052601;28;20128;-74
2022/10/01 03:39:31;;;;;;;0.98;0.88;;;;;;;7.69;100.00;92427.66;5034600;28;20035;-74
2022/10/01 03:41:57;;;;;;;1.95;0.95;;;;;;;7.66;100.00;92433.41;5034636;28;20048;-74
2022/10/01 03:44:22;;;;;;;1.33;0.80;;;;;;;7.64;100.00;92434.72;5052319;28;20522;-74
2022/10/01 03:46:48;;;;;;;1.38;1.00;;;;;;;7.61;100.00;92433.44;5018153;28;20112;-74
2022/10/01 03:49:14;;;;;;;1.48;0.90;;;;;;;7.58;100.00;92423.53;5051950;28;20033;-74
2022/10/01 03:51:39;;;;;;;1.17;0.90;;;;;;;7.57;100.00;92421.22;5033973;28;20033;-74
2022/10/01 03:54:06;;;;;;;4.35;2.80;;;;;;;7.52;100.00;92419.44;5034452;28;20493;-74
2022/10/01 03:56:33;;;;;;;2.05;1.20;;;;;;;7.48;100.00;92421.00;5052049;28;20045;-74
2022/10/01 03:58:59;;;;;;;1.90;1.10;;;;;;;7.49;100.00;92432.97;5034225;28;20044;-74
2022/10/01 04:01:24;;;;;;;1.20;0.93;;;;;;;7.49;100.00;92422.53;5052096;28;20036;-74
2022/10/01 04:03:51;;;;;;;1.88;1.10;;;;;;;7.46;100.00;92431.69;5052033;28;20398;-74
2022/10/01 04:06:17;;;;;;;4.03;0.90;;;;;;;7.43;100.00;92427.00;5034258;28;20021;-74
2022/10/01 04:08:43;;;;;;;1.52;0.98;;;;;;;7.41;100.00;92426.50;5051868;28;20067;-74
2022/10/01 04:11:09;;;;;;;1.33;0.98;;;;;;;7.39;100.00;92414.81;5051585;28;20048;-74
2022/10/01 04:13:35;;;;;;;3.70;0.95;;;;;;;7.38;100.00;92421.81;5017491;28;20036;-74
2022/10/01 04:16:02;;;;;;;2.17;1.20;;;;;;;7.37;100.00;92414.28;5033987;28;20037;-74
2022/10/01 04:18:28;;;;;;;1.08;0.98;;;;;;;7.35;100.00;92421.59;5051725;28;20076;-74
2022/10/01 04:20:54;;;;;;;1.45;1.10;;;;;;;7.33;100.00;92421.84;5034008;28;20102;-74
2022/10/01 04:23:19;;;;;;;4.10;1.20;;;;;;;7.34;100.00;92427.81;5051594;28;20056;-75
2022/10/01 04:25:45;;;;;;;3.97;1.42;;;;;;;7.32;100.00;92435.91;5033756;28;20037;-74
2022/10/01 04:28:12;;;;;;;1.67;1.00;;;;;;;7.32;100.00;92437.72;5033585;28;20029;-74
2022/10/01 04:30:40;;;;;;;2.60;1.00;;;;;;;7.28;100.00;92437.50;5033765;28;20091;-75
2022/10/01 04:33:08;;;;;;;1.20;0.90;;;;;;;7.27;100.00;92435.91;5051294;28;20029;-75
2022/10/01 04:35:34;;;;;;;2.65;0.90;;;;;;;7.28;100.00;92440.09;5016903;28;20078;-75
2022/10/01 04:38:04;;;;;;;0.88;0.80;;;;;;;7.27;100.00;92435.91;5014392;28;20037;-75
2022/10/01 04:40:33;;;;;;;4.63;0.95;;;;;;;7.27;100.00;92436.72;5031386;28;20033;-75
2022/10/01 04:42:59;;;;;;;4.82;1.30;;;;;;;7.26;100.00;92442.19;5030258;28;20039;-75
2022/10/01 04:45:25;;;;;;;2.92;1.00;;;;;;;7.22;100.00;92441.94;5031262;28;20055;-75
2022/10/01 04:47:54;;;;;;;1.48;0.80;;;;;;;7.20;100.00;92444.00;5013388;28;20574;-75
2022/10/01 04:50:21;;;;;;;1.52;1.00;;;;;;;7.20;100.00;92441.41;5031342;28;20025;-75
2022/10/01 04:52:48;;;;;;;2.42;0.80;;;;;;;7.17;100.00;92446.38;5030030;28;20041;-75
2022/10/01 04:55:15;;;;;;;1.55;0.90;;;;;;;7.16;100.00;92447.41;5013291;28;20104;-75
2022/10/01 04:57:41;;;;;;;9.00;0.95;;;;;;;7.13;100.00;92448.72;5031068;28;20084;-75
2022/10/01 05:00:10;;;;;;;1.10;0.80;;;;;;;7.13;100.00;92451.31;5013614;28;20491;-75
2022/10/01 05:02:36;;;;;;;2.63;1.23;;;;;;;7.14;100.00;92449.50;5030712;28;20491;-75
2022/10/01 05:05:04;;;;;;;2.38;1.20;;;;;;;7.14;100.00;92446.91;5029342;28;20113;-75
2022/10/01 05:07:30;;;;;;;2.22;1.10;;;;;;;7.13;100.00;92448.72;5018991;28;20038;-75
2022/10/01 05:09:57;;;;;;;1.60;1.10;;;;;;;7.13;100.00;92448.72;5038609;28;20061;-75
2022/10/01 05:12:24;;;;;;;2.05;0.98;;;;;;;7.14;100.00;92449.50;5013207;28;20037;-75
2022/10/01 05:14:51;;;;;;;1.38;0.90;;;;;;;7.16;100.00;92453.41;5013446;28;20118;-75
2022/10/01 05:17:17;;;;;;;2.58;1.30;;;;;;;7.19;100.00;92455.47;5030802;28;20070;-75
2022/10/01 05:19:43;;;;;;;1.60;0.90;;;;;;;7.22;100.00;92454.94;5013367;28;20025;-75
2022/10/01 05:22:09;;;;;;;1.35;0.80;;;;;;;7.26;100.00;92457.81;5030609;28;20060;-75
2022/10/01 05:24:34;;;;;;;2.20;1.10;;;;;;;7.30;100.00;92467.41;5013435;28;20442;-75
2022/10/01 05:27:00;;;;;;;1.50;0.90;;;;;;;7.36;100.00;92462.19;5030456;28;20430;-75
2022/10/01 05:29:26;;;;;;;1.75;1.02;;;;;;;7.38;100.00;92468.69;5012937;28;20045;-76
2022/10/01 05:31:51;;;;;;;2.22;1.30;;;;;;;7.38;100.00;92467.91;5012988;28;20042;-75
2022/10/01 05:34:17;;;;;;;2.40;1.17;;;;;;;7.42;100.00;92474.16;5013421;28;20083;-75
2022/10/01 05:36:43;;;;;;;1.50;1.00;;;;;;;7.43;100.00;92480.91;5029562;28;20049;-75
2022/10/01 05:39:09;;;;;;;2.20;1.02;;;;;;;7.48;100.00;92480.91;5012448;28;20048;-75
2022/10/01 05:41:34;;;;;;;2.53;1.10;;;;;;;7.70;100.00;92470.91;5030088;28;20017;-75
2022/10/01 05:44:01;;;;;;;2.20;1.10;;;;;;;8.46;100.00;92465.50;5035839;28;20061;-75
2022/10/01 05:46:27;;;;;;;4.38;1.30;;;;;;;9.17;100.00;92459.63;5020442;28;20052;-76
2022/10/01 05:48:54;;;;;;;3.55;1.30;;;;;;;9.44;100.00;92455.69;5014829;28;20033;-75
2022/10/01 05:51:20;;;;;;;2.78;1.38;;;;;;;9.42;100.00;92462.25;5016895;28;20060;-75
2022/10/01 05:53:48;;;;;;;4.70;1.33;;;;;;;9.36;100.00;92471.97;5017035;28;20033;-74
2022/10/01 05:56:14;;;;;;;3.22;1.20;;;;;;;9.29;100.00;92472.31;5034305;28;20053;-75
2022/10/01 05:58:40;;;;;;;5.47;1.58;;;;;;;9.22;100.00;92465.88;5000151;28;20030;-74
2022/10/01 06:01:05;;;;;;;3.85;1.40;;;;;;;9.11;100.00;92473.03;5033939;28;20095;-74
2022/10/01 06:03:32;;;;;;;4.97;1.30;;;;;;;9.03;100.00;92486.66;5016010;28;20072;-75
2022/10/01 06:05:57;;;;;;;3.45;1.25;;;;;;;8.93;100.00;92483.09;5000094;28;20086;-75
2022/10/01 06:08:23;;;;;;;7.68;1.60;;;;;;;8.84;100.00;92487.38;5016444;28;20484;-74
2022/10/01 06:10:49;;;;;;;7.28;1.55;;;;;;;8.75;100.00;92494.22;5033748;28;20101;-75
2022/10/01 06:13:16;;;;;;;4.90;1.55;;;;;;;8.71;100.00;92488.00;5026814;28;20088;-76
2022/10/01 06:15:44;;;;;;;6.30;1.27;;;;;;;8.69;100.00;92488.28;5015070;28;20076;-75
2022/10/01 06:18:11;;;;;;;2.53;1.40;;;;;;;8.68;100.00;92494.56;4999357;28;20076;-74
2022/10/01 06:20:38;;;;;;;8.50;1.30;;;;;;;8.67;100.00;92493.00;5016131;28;20029;-74
2022/10/01 06:23:06;;;;;;;3.45;1.27;;;;;;;8.67;100.00;92498.22;5034213;28;20049;-74
2022/10/01 06:25:33;;;;;;;3.33;1.15;;;;;;;8.67;100.00;92505.25;5033748;28;20099;-75
2022/10/01 06:28:00;;;;;;;1.55;1.00;;;;;;;8.71;100.00;92504.47;5013775;28;20053;-76
2022/10/01 06:30:30;;;;;;;4.95;1.10;;;;;;;8.73;100.00;92512.78;5013337;28;20038;-76
2022/10/01 06:33:05;;;;;;;3.28;1.20;;;;;;;8.74;100.00;92514.34;5039904;28;20082;-78
2022/10/01 06:35:32;;;;;;;3.65;1.15;;;;;;;8.74;100.00;92518.78;5038785;28;20034;-77
2022/10/01 06:37:58;;;;;;;2.50;1.08;;;;;;;8.78;100.00;92530.25;5033444;28;20039;-78
2022/10/01 06:40:24;;;;;;;6.82;1.42;;;;;;;8.80;100.00;92528.13;5019557;28;20041;-77
2022/10/01 06:42:50;;;;;;;10.45;1.55;;;;;;;8.85;100.00;92530.72;5028869;28;20048;-77
2022/10/01 06:45:18;;;;;;;6.10;1.80;;;;;;;8.89;100.00;92531.72;5034203;28;20064;-79
2022/10/01 06:47:44;;;;;;;4.95;1.30;;;;;;;8.93;100.00;92524.88;5027657;28;20080;-78
2022/10/01 06:50:10;;;;;;;3.17;1.40;;;;;;;8.99;100.00;92527.47;5040611;28;20112;-79
2022/10/01 06:52:48;;;;;;;5.20;1.30;;;;;;;9.04;100.00;92530.03;5054871;28;20025;-79
2022/10/01 06:55:35;;;;;;;2.28;1.15;;;;;;;9.09;100.00;92538.56;5057464;28;20165;-79
2022/10/01 06:58:25;;;;;;;1.77;1.08;;;;;;;9.16;100.00;92548.69;5037797;28;20032;-80
2022/10/01 07:00:58;;;;;;;2.17;1.10;;;;;;;9.21;100.00;92540.84;5058047;28;20055;-81
2022/10/01 07:03:24;;;;;;;3.88;1.42;;;;;;;9.31;100.00;92551.19;5043752;28;20033;-77
2022/10/01 07:05:50;;;;;;;8.68;1.75;;;;;;;9.36;100.00;92545.13;5049435;28;20041;-77
2022/10/01 07:08:16;;;;;;;5.22;1.60;;;;;;;9.43;100.00;92544.78;5049173;28;20039;-80
2022/10/01 07:10:45;;;;;;;3.20;1.00;;;;;;;9.48;100.00;92542.13;5039246;28;20116;-80
2022/10/01 07:13:13;;;;;;;3.20;1.45;;;;;;;9.53;100.00;92548.09;5024700;28;20029;-80
2022/10/01 07:15:39;;;;;;;2.47;1.10;;;;;;;9.56;100.00;92544.13;5057282;28;20433;-80
2022/10/01 07:18:08;;;;;;;2.35;1.00;;;;;;;9.57;100.00;92548.31;5057236;28;20037;-79
2022/10/01 07:20:38;;;;;;;2.25;0.98;;;;;;;9.60;100.00;92545.16;5022723;28;20032;-80
2022/10/01 07:23:05;;;;;;;2.03;1.20;;;;;;;9.62;100.00;92555.34;5038443;28;20039;-79
2022/10/01 07:25:30;;;;;;;3.78;1.77;;;;;;;9.66;100.00;92553.69;5038073;28;20029;-79
2022/10/01 07:28:01;;;;;;;3.88;1.90;;;;;;;9.69;100.00;92563.63;5055711;28;20120;-79
2022/10/01 07:30:28;;;;;;;6.82;4.13;;;;;;;9.70;100.00;92552.84;5055894;28;20040;-78
2022/10/01 07:32:53;;;;;;;12.95;8.73;;;;;;;9.66;100.00;92553.69;5038197;28;20103;-78
2022/10/01 07:35:19;;;;;;;10.88;7.80;;;;;;;9.65;100.00;92558.16;5005989;28;20052;-78
2022/10/01 07:37:52;;;;;;;7.93;3.35;;;;;;;9.68;100.00;92562.84;5021658;28;20033;-79
2022/10/01 07:40:18;;;;;;;5.80;2.67;;;;;;;9.71;100.00;92564.88;5056308;28;20052;-79
2022/10/01 07:42:53;;;;;;;5.03;2.65;;;;;;;9.75;100.00;92559.91;5055947;28;20021;-79
2022/10/01 07:45:20;;;;;;;5.90;2.80;;;;;;;9.78;100.00;92552.25;5055658;28;20068;-79
2022/10/01 07:48:00;;;;;;;10.02;5.45;;;;;;;9.68;100.00;92557.63;5055565;28;20063;-79
2022/10/01 07:50:31;;;;;;;12.30;4.50;;;;;;;9.70;100.00;92559.94;5056459;28;20063;-79
2022/10/01 07:52:59;;;;;;;8.43;4.03;;;;;;;9.76;100.00;92554.38;5037585;28;20550;-79
2022/10/01 07:55:27;;;;;;;5.30;2.42;;;;;;;9.83;100.00;92553.25;5027344;28;20141;-79
2022/10/01 07:57:55;;;;;;;2.58;1.60;;;;;;;9.90;100.00;92564.94;5034487;28;20037;-79
2022/10/01 08:00:23;;;;;;;6.75;2.30;;;;;;;9.99;100.00;92572.94;5035505;28;20483;-79
2022/10/01 08:02:50;;;;;;;7.60;3.50;;;;;;;10.08;100.00;92568.63;5035109;28;20025;-79
2022/10/01 08:05:20;;;;;;;7.43;3.60;;;;;;;10.17;100.00;92561.72;5035203;28;20526;-79
2022/10/01 08:07:47;;;;;;;11.32;5.95;;;;;;;10.27;100.00;92558.22;5017717;28;20499;-79
2022/10/01 08:10:15;;;;;;;9.13;5.13;;;;;;;10.36;100.00;92566.25;5017927;28;20042;-79
2022/10/01 08:12:41;;;;;;;6.78;3.83;;;;;;;10.46;100.00;92571.31;5035522;28;20025;-79
2022/10/01 08:15:12;;;;;;;12.05;6.40;;;;;;;10.50;100.00;92567.09;5035243;28;20178;-79
2022/10/01 08:17:38;;;;;;;4.35;2.47;;;;;;;10.51;100.00;92583.56;5035987;28;20044;-79
2022/10/01 08:20:06;;;;;;;4.72;2.38;;;;;;;10.46;100.00;92575.78;5018184;28;20034;-79
2022/10/01 08:22:32;;;;;;;5.10;2.47;;;;;;;10.48;100.00;92590.16;5017104;28;20067;-80
2022/10/01 08:24:58;;;;;;;9.07;3.03;;;;;;;10.55;100.00;92589.78;5036671;28;20128;-79
2022/10/01 08:27:24;;;;;;;14.52;4.65;;;;;;;10.62;100.00;92598.06;5036032;28;20057;-79
2022/10/01 08:29:51;;;;;;;10.70;5.78;;;;;;;10.69;100.00;92601.09;5002440;28;20045;-80
2022/10/01 08:32:16;;;;;;;14.43;6.25;;;;;;;10.79;100.00;92584.50;5018356;28;20041;-80
2022/10/01 08:34:42;;;;;;;5.97;3.45;;;;;;;10.89;100.00;92592.19;5036867;28;20133;-80
2022/10/01 08:37:07;;;;;;;5.03;2.13;;;;;;;10.92;100.00;92589.00;5036138;28;20361;-79
2022/10/01 08:39:33;;;;;;;2.45;1.50;;;;;;;10.81;100.00;92585.00;5035610;28;20112;-80
2022/10/01 08:42:07;;;;;;;3.03;1.70;;;;;;;10.79;100.00;92587.13;5036257;28;20395;-78
2022/10/01 08:44:43;;;;;;;4.25;1.67;;;;;;;10.86;100.00;92589.38;5035888;28;20148;-78
2022/10/01 08:47:18;;;;;;;2.83;1.58;;;;;;;10.94;100.00;92589.50;5017644;28;20030;-79
2022/10/01 08:49:50;;;;;;;3.88;1.67;;;;;;;11.19;100.00;92590.16;5034990;28;20667;-79
2022/10/01 08:52:21;;;;;;;3.15;1.40;;;;;;;11.23;100.00;92589.28;5016705;28;20029;-78
2022/10/01 08:54:58;;;;;;;3.00;1.60;;;;;;;11.10;100.00;92587.44;5029727;28;20052;-81
2022/10/01 08:57:45;;;;;;;4.03;1.67;;;;;;;10.98;100.00;92590.47;5031434;28;20052;-82
2022/10/01 09:00:17;;;;;;;5.47;2.60;;;;;;;11.08;100.00;92591.38;5018523;28;20377;-80
2022/10/01 09:02:45;;;;;;;9.70;4.32;;;;;;;11.33;100.00;92582.34;5039285;28;20033;-80
2022/10/01 09:05:40;;;;;;;8.57;2.70;;;;;;;11.60;100.00;92571.91;5030775;28;20029;-78
2022/10/01 09:08:43;;;;;;;8.43;2.40;;;;;;;11.64;100.00;92577.34;5027121;28;20029;-80
2022/10/01 09:11:17;;;;;;;;;;;;;;;11.74;100.00;92582.41;5021699;28;20037;-82
2022/10/01 09:13:53;;;;;;;8.98;4.55;;;;;;;12.01;100.00;92570.41;5028198;28;19919;-79
2022/10/01 09:16:46;;;;;;;8.43;3.47;;;;;;;12.13;100.00;92572.53;5036249;28;20029;-81
2022/10/01 09:19:17;;;;;;;5.80;2.85;;;;;;;12.06;100.00;92578.16;5015208;28;20206;-79
2022/10/01 09:21:55;;;;;;;5.13;2.83;;;;;;;11.99;100.00;92577.78;5021382;28;20032;-82
2022/10/01 09:24:42;;;;;;;4.40;2.20;;;;;;;12.03;100.00;92570.88;5021639;28;20037;-79
2022/10/01 09:27:18;;;;;;;5.10;2.70;;;;;;;12.04;100.00;92577.69;5038549;28;20037;-81
2022/10/01 09:30:09;;;;;;;6.43;3.80;;;;;;;12.05;100.00;92576.63;5027431;28;20021;-79
2022/10/01 09:32:42;;;;;;;7.13;3.17;;;;;;;12.14;100.00;92577.50;5040422;28;20033;-79
2022/10/01 09:35:24;;;;;;;;;;;;;;;12.22;100.00;92571.53;5038982;28;20034;-80
2022/10/01 09:37:59;;;;;;;7.53;3.17;;;;;;;12.26;100.00;92575.13;5021114;28;19913;-79
2022/10/01 09:40:45;;;;;;;8.95;3.72;;;;;;;12.16;100.00;92577.97;5042926;28;20432;-81
2022/10/01 09:43:11;;;;;;;8.25;3.92;;;;;;;12.37;100.00;92574.94;5029981;28;20033;-79
2022/10/01 09:45:37;;;;;;;7.88;3.47;;;;;;;12.59;100.00;92564.47;5035250;28;20025;-79
2022/10/01 09:48:19;;;;;;;8.90;2.70;;;;;;;12.55;100.00;92558.25;5031431;28;20034;-79
2022/10/01 09:50:57;;;;;;;7.30;3.13;;;;;;;12.67;100.00;92549.84;5033199;28;20661;-79
2022/10/01 09:53:34;;;;;;;5.72;2.35;;;;;;;13.04;99.32;92542.72;5032408;28;20036;-79
2022/10/01 09:56:13;;;;;;;7.13;2.83;;;;;;;13.09;97.54;92543.38;5035157;28;20546;-78
2022/10/01 09:58:44;;;;;;;4.30;2.50;;;;;;;13.25;98.84;92558.78;5039288;28;20504;-79
2022/10/01 10:01:19;;;;;;;3.53;1.75;;;;;;;13.47;96.32;92569.28;5039836;28;20020;-78
2022/10/01 10:03:54;;;;;;;2.72;1.60;;;;;;;13.79;91.49;92580.59;5051310;28;20063;-80
2022/10/01 10:06:27;;;;;;;4.38;1.80;;;;;;;13.73;90.60;92587.84;5056017;28;20401;-80
2022/10/01 10:08:55;;;;;;;5.03;2.10;;;;;;;13.57;92.53;92580.63;5031695;28;20049;-79
2022/10/01 10:11:24;;;;;;;4.03;1.90;;;;;;;13.79;92.64;92572.69;5047520;28;20025;-79
2022/10/01 10:13:53;;;;;;;5.68;2.08;;;;;;;13.67;93.40;92567.25;5047242;28;20033;-78
2022/10/01 10:16:35;;;;;;;4.05;1.83;;;;;;;13.81;87.57;92575.81;5048289;28;20033;-79
2022/10/01 10:19:14;;;;;;;5.05;2.03;;;;;;;13.99;90.39;92579.28;5034798;28;20065;-78
2022/10/01 10:21:50;;;;;;;6.50;3.10;;;;;;;14.10;92.96;92583.19;5051315;28;20483;-79
2022/10/01 10:24:32;;;;;;;7.00;1.88;;;;;;;14.36;86.30;92585.91;5053354;28;20033;-78
2022/10/01 10:26:59;;;;;;;3.85;1.73;;;;;;;14.61;87.63;92588.13;5018411;28;20131;-79
2022/10/01 10:29:36;;;;;;;6.25;1.77;;;;;;;14.95;84.33;92590.81;5051950;28;20040;-78
2022/10/01 10:32:06;;;;;;;3.17;1.80;;;;;;;15.07;84.20;92598.09;5037805;28;20062;-79
2022/10/01 10:34:37;;;;;;;5.68;2.40;;;;;;;15.13;83.71;92604.75;5035515;28;20037;-79
2022/10/01 10:37:12;;;;;;;4.65;2.20;;;;;;;15.27;82.33;92586.13;5056633;28;20056;-79
2022/10/01 10:39:39;;;;;;;5.22;2.63;;;;;;;15.27;83.61;92590.63;5026658;28;20041;-79
2022/10/01 10:42:06;;;;;;;7.30;4.28;;;;;;;14.80;88.04;92598.38;5061375;28;20471;-78
2022/10/01 10:44:38;;;;;;;13.75;8.05;;;;;;;14.24;93.86;92592.81;5057244;28;20036;-78
2022/10/01 10:47:10;;;;;;;13.07;6.05;;;;;;;14.41;95.86;92597.34;5054453;28;20037;-79
2022/10/01 10:49:44;;;;;;;9.85;5.45;;;;;;;14.14;94.09;92597.28;5037834;28;20053;-78
2022/10/01 10:52:39;;;;;;;8.73;5.15;;;;;;;13.85;95.97;92597.81;5059742;28;20033;-79
2022/10/01 10:55:24;;;;;;;8.65;4.00;;;;;;;14.15;95.85;92598.06;5020843;28;20037;-76
2022/10/01 10:57:50;;;;;;;9.30;4.07;;;;;;;14.57;95.80;92590.63;5033911;28;20037;-78
2022/10/01 11:00:18;;;;;;;5.88;2.90;;;;;;;14.87;87.16;92583.66;5056648;28;20112;-79
2022/10/01 11:02:57;;;;;;;7.63;4.50;;;;;;;14.78;92.64;92582.88;5003415;28;20033;-79
2022/10/01 11:05:27;;;;;;;10.50;4.50;;;;;;;14.97;90.27;92582.56;5021714;28;20033;-79
2022/10/01 11:07:57;;;;;;;7.03;2.30;;;;;;;14.76;83.23;92572.63;5052682;28;20452;-79
2022/10/01 11:10:44;;;;;;;5.10;2.85;;;;;;;15.10;89.62;92579.00;5039258;28;20052;-80
2022/10/01 11:13:32;;;;;;;4.72;2.72;;;;;;;14.90;86.81;92582.25;5038991;28;20041;-79
2022/10/01 11:16:23;;;;;;;5.63;2.63;;;;;;;14.89;88.86;92580.72;5021142;28;20049;-80
2022/10/01 11:19:10;;;;;;;5.25;2.58;;;;;;;14.99;86.09;92575.91;5038249;28;20048;-79
2022/10/01 11:21:47;;;;;;;6.43;2.40;;;;;;;15.18;87.19;92575.59;5003738;28;20438;-78
2022/10/01 11:24:49;;;;;;;4.25;2.28;;;;;;;15.19;80.75;92579.00;5036867;28;20029;-78
2022/10/01 11:27:36;;;;;;;6.72;2.30;;;;;;;14.92;84.22;92585.34;5036451;28;20041;-78
2022/10/01 11:30:15;;;;;;;4.70;2.58;;;;;;;14.35;90.39;92584.34;5037516;28;20037;-80
2022/10/01 11:32:54;;;;;;;5.57;2.65;;;;;;;14.28;90.94;92588.50;5036410;28;20028;-80
2022/10/01 11:35:29;;;;;;;5.50;3.10;;;;;;;14.29;91.39;92596.09;5037474;28;20137;-79
2022/10/01 11:38:41;;;;;;;5.28;2.88;;;;;;;14.44;90.40;92586.22;5019632;28;20038;-78
2022/10/01 11:41:06;;;;;;;5.60;3.10;;;;;;;14.47;91.53;92588.22;4958593;28;20042;-78
2022/10/01 11:43:39;;;;;;;6.88;3.08;;;;;;;14.63;91.31;92583.31;4975168;28;20031;-81
2022/10/01 11:46:50;;;;;;;7.05;2.80;;;;;;;14.98;89.76;92577.00;5003472;28;20053;-80
2022/10/01 11:49:34;;;;;;;9.13;3.03;;;;;;;14.71;88.96;92569.41;4991566;28;20576;-81
2022/10/01 11:52:22;;;;;;;5.53;2.90;;;;;;;14.30;90.48;92581.09;5043613;28;20025;-81